sensor_id;sensor_type;location;lat;lon;timestamp;temperature;humidity
52024;DHT22;38038;45.922;13.604;2023-01-24T00:01:02;6.80;99.90
52024;DHT22;38038;45.922;13.604;2023-01-24T00:03:28;6.80;99.90
52024;DHT22;38038;45.922;13.604;2023-01-24T00:05:54;6.90;99.90
52024;DHT22;38038;45.922;13.604;2023-01-24T00:08:20;6.80;99.90
52024;DHT22;38038;45.922;13.604;2023-01-24T00:10:48;6.90;99.90
52024;DHT22;38038;45.922;13.604;2023-01-24T00:13:14;6.80;99.90
52024;DHT22;38038;45.922;13.604;2023-01-24T00:15:40;6.70;99.90
52024;DHT22;38038;45.922;13.604;2023-01-24T00:18:06;6.80;99.90
52024;DHT22;38038;45.922;13.604;2023-01-24T00:20:32;6.80;99.90
52024;DHT22;38038;45.922;13.604;2023-01-24T00:22:58;6.80;99.90
52024;DHT22;38038;45.922;13.604;2023-01-24T00:25:23;6.80;99.90
52024;DHT22;38038;45.922;13.604;2023-01-24T00:27:49;6.60;99.90
52024;DHT22;38038;45.922;13.604;2023-01-24T00:30:15;6.70;99.90
52024;DHT22;38038;45.922;13.604;2023-01-24T00:32:41;6.60;99.90
52024;DHT22;38038;45.922;13.604;2023-01-24T00:35:07;6.60;99.90
52024;DHT22;38038;45.922;13.604;2023-01-24T00:37:33;6.50;99.90
52024;DHT22;38038;45.922;13.604;2023-01-24T00:39:58;6.40;99.90
52024;DHT22;38038;45.922;13.604;2023-01-24T00:42:24;6.50;99.90
52024;DHT22;38038;45.922;13.604;2023-01-24T00:44:50;6.50;99.90
52024;DHT22;38038;45.922;13.604;2023-01-24T00:47:15;6.50;99.90
52024;DHT22;38038;45.922;13.604;2023-01-24T00:49:41;6.60;99.90
52024;DHT22;38038;45.922;13.604;2023-01-24T00:52:07;6.50;99.90
52024;DHT22;38038;45.922;13.604;2023-01-24T00:54:32;6.50;99.90
52024;DHT22;38038;45.922;13.604;2023-01-24T00:56:58;6.50;99.90
52024;DHT22;38038;45.922;13.604;2023-01-24T00:59:24;6.50;99.90
52024;DHT22;38038;45.922;13.604;2023-01-24T01:01:50;6.50;99.90
52024;DHT22;38038;45.922;13.604;2023-01-24T01:04:15;6.50;99.90
52024;DHT22;38038;45.922;13.604;2023-01-24T01:06:43;6.40;99.90
52024;DHT22;38038;45.922;13.604;2023-01-24T01:09:08;6.40;99.90
52024;DHT22;38038;45.922;13.604;2023-01-24T01:11:34;6.50;99.90
52024;DHT22;38038;45.922;13.604;2023-01-24T01:14:01;6.40;99.90
52024;DHT22;38038;45.922;13.604;2023-01-24T01:16:27;6.30;99.90
52024;DHT22;38038;45.922;13.604;2023-01-24T01:18:54;6.20;99.90
52024;DHT22;38038;45.922;13.604;2023-01-24T01:21:22;6.10;99.90
52024;DHT22;38038;45.922;13.604;2023-01-24T01:23:47;6.10;99.90
52024;DHT22;38038;45.922;13.604;2023-01-24T01:26:19;6.10;99.90
52024;DHT22;38038;45.922;13.604;2023-01-24T01:28:45;6.00;99.90
52024;DHT22;38038;45.922;13.604;2023-01-24T01:31:12;6.10;99.90
52024;DHT22;38038;45.922;13.604;2023-01-24T01:33:37;6.10;99.90
52024;DHT22;38038;45.922;13.604;2023-01-24T01:36:03;6.00;99.90
52024;DHT22;38038;45.922;13.604;2023-01-24T01:38:31;6.00;99.90
52024;DHT22;38038;45.922;13.604;2023-01-24T01:40:57;6.10;99.90
52024;DHT22;38038;45.922;13.604;2023-01-24T01:43:25;6.10;99.90
52024;DHT22;38038;45.922;13.604;2023-01-24T01:45:54;6.10;99.90
52024;DHT22;38038;45.922;13.604;2023-01-24T01:48:42;6.20;99.90
52024;DHT22;38038;45.922;13.604;2023-01-24T01:51:27;6.30;99.90
52024;DHT22;38038;45.922;13.604;2023-01-24T01:54:04;6.30;99.90
52024;DHT22;38038;45.922;13.604;2023-01-24T01:56:42;6.30;99.90
52024;DHT22;38038;45.922;13.604;2023-01-24T01:59:11;6.20;99.90
52024;DHT22;38038;45.922;13.604;2023-01-24T02:01:39;6.10;99.90
52024;DHT22;38038;45.922;13.604;2023-01-24T02:04:11;6.10;99.90
52024;DHT22;38038;45.922;13.604;2023-01-24T02:06:57;5.90;99.90
52024;DHT22;38038;45.922;13.604;2023-01-24T02:09:29;5.90;99.90
52024;DHT22;38038;45.922;13.604;2023-01-24T02:12:00;6.00;99.90
52024;DHT22;38038;45.922;13.604;2023-01-24T02:14:27;6.00;99.90
52024;DHT22;38038;45.922;13.604;2023-01-24T02:17:12;5.90;99.90
52024;DHT22;38038;45.922;13.604;2023-01-24T02:19:50;5.70;99.90
52024;DHT22;38038;45.922;13.604;2023-01-24T02:27:30;5.40;99.90
52024;DHT22;38038;45.922;13.604;2023-01-24T02:29:56;5.30;99.90
52024;DHT22;38038;45.922;13.604;2023-01-24T02:32:22;5.20;99.90
52024;DHT22;38038;45.922;13.604;2023-01-24T02:34:47;5.10;99.90
52024;DHT22;38038;45.922;13.604;2023-01-24T02:37:13;5.20;99.90
52024;DHT22;38038;45.922;13.604;2023-01-24T02:39:48;5.30;99.90
52024;DHT22;38038;45.922;13.604;2023-01-24T02:42:18;5.50;99.90
52024;DHT22;38038;45.922;13.604;2023-01-24T02:44:52;5.40;99.90
52024;DHT22;38038;45.922;13.604;2023-01-24T02:47:24;5.30;99.90
52024;DHT22;38038;45.922;13.604;2023-01-24T02:49:51;5.30;99.90
52024;DHT22;38038;45.922;13.604;2023-01-24T02:52:17;5.30;99.90
52024;DHT22;38038;45.922;13.604;2023-01-24T02:55:01;5.40;99.90
52024;DHT22;38038;45.922;13.604;2023-01-24T02:57:26;5.40;99.90
52024;DHT22;38038;45.922;13.604;2023-01-24T03:00:11;5.50;99.90
52024;DHT22;38038;45.922;13.604;2023-01-24T03:02:37;5.50;99.90
52024;DHT22;38038;45.922;13.604;2023-01-24T03:05:03;5.50;99.90
52024;DHT22;38038;45.922;13.604;2023-01-24T03:07:29;5.40;99.90
52024;DHT22;38038;45.922;13.604;2023-01-24T03:10:13;5.30;99.90
52024;DHT22;38038;45.922;13.604;2023-01-24T03:12:39;5.10;99.90
52024;DHT22;38038;45.922;13.604;2023-01-24T03:15:24;5.00;99.90
52024;DHT22;38038;45.922;13.604;2023-01-24T03:18:09;5.00;99.90
52024;DHT22;38038;45.922;13.604;2023-01-24T03:20:53;4.90;99.90
52024;DHT22;38038;45.922;13.604;2023-01-24T03:23:38;4.80;99.90
52024;DHT22;38038;45.922;13.604;2023-01-24T03:26:22;4.90;99.90
52024;DHT22;38038;45.922;13.604;2023-01-24T03:29:07;5.00;99.90
52024;DHT22;38038;45.922;13.604;2023-01-24T03:31:51;5.00;99.90
52024;DHT22;38038;45.922;13.604;2023-01-24T16:13:57;7.90;99.90
52024;DHT22;38038;45.922;13.604;2023-01-24T16:16:23;7.70;99.90
52024;DHT22;38038;45.922;13.604;2023-01-24T16:18:48;7.60;99.90
52024;DHT22;38038;45.922;13.604;2023-01-24T16:21:15;7.40;99.90
52024;DHT22;38038;45.922;13.604;2023-01-24T16:23:40;7.50;99.90
52024;DHT22;38038;45.922;13.604;2023-01-24T16:26:22;7.40;99.90
52024;DHT22;38038;45.922;13.604;2023-01-24T16:28:49;7.50;99.90
52024;DHT22;38038;45.922;13.604;2023-01-24T16:31:15;7.60;99.90
52024;DHT22;38038;45.922;13.604;2023-01-24T16:33:41;7.70;99.90
52024;DHT22;38038;45.922;13.604;2023-01-24T16:36:10;7.70;99.90
52024;DHT22;38038;45.922;13.604;2023-01-24T16:38:37;7.60;99.90
52024;DHT22;38038;45.922;13.604;2023-01-24T16:41:03;7.70;99.90
52024;DHT22;38038;45.922;13.604;2023-01-24T16:43:29;7.90;99.90
52024;DHT22;38038;45.922;13.604;2023-01-24T16:45:55;7.80;99.90
52024;DHT22;38038;45.922;13.604;2023-01-24T16:48:20;7.80;99.90
52024;DHT22;38038;45.922;13.604;2023-01-24T16:50:46;7.80;99.90
52024;DHT22;38038;45.922;13.604;2023-01-24T16:53:14;7.80;99.90
52024;DHT22;38038;45.922;13.604;2023-01-24T16:55:40;7.80;99.90
52024;DHT22;38038;45.922;13.604;2023-01-24T16:58:07;7.80;99.90
52024;DHT22;38038;45.922;13.604;2023-01-24T17:00:34;7.90;99.90
52024;DHT22;38038;45.922;13.604;2023-01-24T17:03:00;8.00;99.90
52024;DHT22;38038;45.922;13.604;2023-01-24T17:05:27;8.10;99.90
52024;DHT22;38038;45.922;13.604;2023-01-24T17:07:54;8.10;99.90
52024;DHT22;38038;45.922;13.604;2023-01-24T17:10:20;8.10;99.90
52024;DHT22;38038;45.922;13.604;2023-01-24T17:12:46;8.00;99.90
52024;DHT22;38038;45.922;13.604;2023-01-24T17:15:12;8.10;99.90
52024;DHT22;38038;45.922;13.604;2023-01-24T17:17:39;8.10;99.90
52024;DHT22;38038;45.922;13.604;2023-01-24T17:20:06;8.10;99.90
52024;DHT22;38038;45.922;13.604;2023-01-24T17:22:32;8.00;99.90
52024;DHT22;38038;45.922;13.604;2023-01-24T17:24:58;8.00;99.90
52024;DHT22;38038;45.922;13.604;2023-01-24T17:27:23;7.90;99.90
52024;DHT22;38038;45.922;13.604;2023-01-24T17:29:49;7.90;99.90
52024;DHT22;38038;45.922;13.604;2023-01-24T17:32:15;8.00;99.90
52024;DHT22;38038;45.922;13.604;2023-01-24T17:34:40;7.90;99.90
52024;DHT22;38038;45.922;13.604;2023-01-24T17:37:06;7.80;99.90
52024;DHT22;38038;45.922;13.604;2023-01-24T17:39:32;7.80;99.90
52024;DHT22;38038;45.922;13.604;2023-01-24T17:41:57;7.80;99.90
52024;DHT22;38038;45.922;13.604;2023-01-24T17:44:23;7.70;99.90
52024;DHT22;38038;45.922;13.604;2023-01-24T17:46:49;7.60;99.90
52024;DHT22;38038;45.922;13.604;2023-01-24T17:49:14;7.60;99.90
52024;DHT22;38038;45.922;13.604;2023-01-24T17:51:40;7.60;99.90
52024;DHT22;38038;45.922;13.604;2023-01-24T17:54:09;7.60;99.90
52024;DHT22;38038;45.922;13.604;2023-01-24T17:56:35;7.60;99.90
52024;DHT22;38038;45.922;13.604;2023-01-24T17:59:01;7.60;99.90
52024;DHT22;38038;45.922;13.604;2023-01-24T18:01:27;7.60;99.90
52024;DHT22;38038;45.922;13.604;2023-01-24T18:03:54;7.60;99.90
52024;DHT22;38038;45.922;13.604;2023-01-24T18:06:19;7.50;99.90
52024;DHT22;38038;45.922;13.604;2023-01-24T18:08:45;7.50;99.90
52024;DHT22;38038;45.922;13.604;2023-01-24T18:11:14;7.60;99.90
52024;DHT22;38038;45.922;13.604;2023-01-24T18:13:41;7.60;99.90
52024;DHT22;38038;45.922;13.604;2023-01-24T18:16:09;7.70;99.90
52024;DHT22;38038;45.922;13.604;2023-01-24T18:18:37;7.50;99.90
52024;DHT22;38038;45.922;13.604;2023-01-24T18:21:14;7.50;99.90
52024;DHT22;38038;45.922;13.604;2023-01-24T18:23:41;7.50;99.90
52024;DHT22;38038;45.922;13.604;2023-01-24T18:26:07;7.60;99.90
52024;DHT22;38038;45.922;13.604;2023-01-24T18:28:34;7.60;99.90
52024;DHT22;38038;45.922;13.604;2023-01-24T18:31:05;7.50;99.90
52024;DHT22;38038;45.922;13.604;2023-01-24T18:33:35;7.50;99.90
52024;DHT22;38038;45.922;13.604;2023-01-24T18:36:08;7.50;99.90
52024;DHT22;38038;45.922;13.604;2023-01-24T18:38:35;7.50;99.90
52024;DHT22;38038;45.922;13.604;2023-01-24T18:41:01;7.50;99.90
52024;DHT22;38038;45.922;13.604;2023-01-24T18:43:27;7.40;99.90
52024;DHT22;38038;45.922;13.604;2023-01-24T18:45:52;7.50;99.90
52024;DHT22;38038;45.922;13.604;2023-01-24T18:48:18;7.50;99.90
52024;DHT22;38038;45.922;13.604;2023-01-24T18:50:44;7.40;99.90
52024;DHT22;38038;45.922;13.604;2023-01-24T18:53:09;7.40;99.90
52024;DHT22;38038;45.922;13.604;2023-01-24T18:55:35;7.50;99.90
52024;DHT22;38038;45.922;13.604;2023-01-24T18:58:01;7.40;99.90
52024;DHT22;38038;45.922;13.604;2023-01-24T19:00:26;7.50;99.90
52024;DHT22;38038;45.922;13.604;2023-01-24T19:02:52;7.50;99.90
52024;DHT22;38038;45.922;13.604;2023-01-24T19:05:18;7.60;99.90
52024;DHT22;38038;45.922;13.604;2023-01-24T19:07:43;7.60;99.90
52024;DHT22;38038;45.922;13.604;2023-01-24T19:10:12;7.70;99.90
52024;DHT22;38038;45.922;13.604;2023-01-24T19:12:38;7.70;99.90
52024;DHT22;38038;45.922;13.604;2023-01-24T19:15:08;7.70;99.90
52024;DHT22;38038;45.922;13.604;2023-01-24T19:17:34;7.70;99.90
52024;DHT22;38038;45.922;13.604;2023-01-24T19:20:00;7.70;99.90
52024;DHT22;38038;45.922;13.604;2023-01-24T19:22:26;7.60;99.90
52024;DHT22;38038;45.922;13.604;2023-01-24T19:24:51;7.70;99.90
52024;DHT22;38038;45.922;13.604;2023-01-24T19:27:18;7.70;99.90
52024;DHT22;38038;45.922;13.604;2023-01-24T19:29:44;7.60;99.90
52024;DHT22;38038;45.922;13.604;2023-01-24T19:32:10;7.60;99.90
52024;DHT22;38038;45.922;13.604;2023-01-24T19:34:35;7.60;99.90
52024;DHT22;38038;45.922;13.604;2023-01-24T19:37:01;7.60;99.90
52024;DHT22;38038;45.922;13.604;2023-01-24T19:39:27;7.50;99.90
52024;DHT22;38038;45.922;13.604;2023-01-24T19:41:53;7.40;99.90
52024;DHT22;38038;45.922;13.604;2023-01-24T19:44:18;7.30;99.90
52024;DHT22;38038;45.922;13.604;2023-01-24T19:46:47;7.20;99.90
52024;DHT22;38038;45.922;13.604;2023-01-24T19:49:13;7.10;99.90
52024;DHT22;38038;45.922;13.604;2023-01-24T19:51:39;7.00;99.90
52024;DHT22;38038;45.922;13.604;2023-01-24T19:54:05;7.00;99.90
52024;DHT22;38038;45.922;13.604;2023-01-24T19:56:31;6.90;99.90
52024;DHT22;38038;45.922;13.604;2023-01-24T19:58:57;6.90;99.90
52024;DHT22;38038;45.922;13.604;2023-01-24T20:01:23;6.90;99.90
52024;DHT22;38038;45.922;13.604;2023-01-24T20:03:49;6.90;99.90
52024;DHT22;38038;45.922;13.604;2023-01-24T20:06:17;6.90;99.90
52024;DHT22;38038;45.922;13.604;2023-01-24T20:08:46;6.90;99.90
52024;DHT22;38038;45.922;13.604;2023-01-24T20:11:13;6.90;99.90
52024;DHT22;38038;45.922;13.604;2023-01-24T20:13:39;7.00;99.90
52024;DHT22;38038;45.922;13.604;2023-01-24T20:16:08;7.00;99.90
52024;DHT22;38038;45.922;13.604;2023-01-24T20:18:36;7.10;99.90
52024;DHT22;38038;45.922;13.604;2023-01-24T20:21:02;7.00;99.90
52024;DHT22;38038;45.922;13.604;2023-01-24T20:23:27;7.00;99.90
52024;DHT22;38038;45.922;13.604;2023-01-24T20:26:00;7.00;99.90
52024;DHT22;38038;45.922;13.604;2023-01-24T20:28:26;7.00;99.90
52024;DHT22;38038;45.922;13.604;2023-01-24T20:30:51;7.00;99.90
52024;DHT22;38038;45.922;13.604;2023-01-24T20:33:17;7.00;99.90
52024;DHT22;38038;45.922;13.604;2023-01-24T20:35:43;7.00;99.90
52024;DHT22;38038;45.922;13.604;2023-01-24T20:38:08;7.00;99.90
52024;DHT22;38038;45.922;13.604;2023-01-24T20:40:35;7.00;99.90
52024;DHT22;38038;45.922;13.604;2023-01-24T20:43:01;7.00;99.90
52024;DHT22;38038;45.922;13.604;2023-01-24T20:45:26;7.00;99.90
52024;DHT22;38038;45.922;13.604;2023-01-24T20:47:53;7.00;99.90
52024;DHT22;38038;45.922;13.604;2023-01-24T20:50:19;7.00;99.90
52024;DHT22;38038;45.922;13.604;2023-01-24T20:52:44;7.00;99.90
52024;DHT22;38038;45.922;13.604;2023-01-24T20:55:10;7.00;99.90
52024;DHT22;38038;45.922;13.604;2023-01-24T20:57:36;7.00;99.90
52024;DHT22;38038;45.922;13.604;2023-01-24T21:00:03;7.00;99.90
52024;DHT22;38038;45.922;13.604;2023-01-24T21:02:30;7.00;99.90
52024;DHT22;38038;45.922;13.604;2023-01-24T21:04:55;6.80;99.90
52024;DHT22;38038;45.922;13.604;2023-01-24T21:07:21;6.70;99.90
52024;DHT22;38038;45.922;13.604;2023-01-24T21:09:47;6.60;99.90
52024;DHT22;38038;45.922;13.604;2023-01-24T21:12:12;6.60;99.90
52024;DHT22;38038;45.922;13.604;2023-01-24T21:14:38;6.60;99.90
52024;DHT22;38038;45.922;13.604;2023-01-24T21:17:04;6.50;99.90
52024;DHT22;38038;45.922;13.604;2023-01-24T21:19:30;6.60;99.90
52024;DHT22;38038;45.922;13.604;2023-01-24T21:21:55;6.60;99.90
52024;DHT22;38038;45.922;13.604;2023-01-24T21:24:21;6.60;99.90
52024;DHT22;38038;45.922;13.604;2023-01-24T21:26:47;6.90;99.90
52024;DHT22;38038;45.922;13.604;2023-01-24T21:29:13;7.30;99.90
52024;DHT22;38038;45.922;13.604;2023-01-24T21:31:39;7.50;99.90
52024;DHT22;38038;45.922;13.604;2023-01-24T21:34:05;7.60;99.90
52024;DHT22;38038;45.922;13.604;2023-01-24T21:36:31;7.70;99.90
52024;DHT22;38038;45.922;13.604;2023-01-24T21:39:00;7.90;99.90
52024;DHT22;38038;45.922;13.604;2023-01-24T21:41:28;8.10;99.90
52024;DHT22;38038;45.922;13.604;2023-01-24T21:44:12;8.20;99.90
52024;DHT22;38038;45.922;13.604;2023-01-24T21:46:37;8.20;99.90
52024;DHT22;38038;45.922;13.604;2023-01-24T21:49:03;8.00;99.90
52024;DHT22;38038;45.922;13.604;2023-01-24T21:51:53;7.90;99.90
52024;DHT22;38038;45.922;13.604;2023-01-24T21:56:49;7.60;99.90
52024;DHT22;38038;45.922;13.604;2023-01-24T21:59:35;7.30;99.90
52024;DHT22;38038;45.922;13.604;2023-01-24T22:02:03;7.20;99.90
52024;DHT22;38038;45.922;13.604;2023-01-24T22:04:31;7.10;99.90
52024;DHT22;38038;45.922;13.604;2023-01-24T22:06:57;7.00;99.90
52024;DHT22;38038;45.922;13.604;2023-01-24T22:09:23;7.00;99.90
52024;DHT22;38038;45.922;13.604;2023-01-24T22:11:50;7.00;99.90
52024;DHT22;38038;45.922;13.604;2023-01-24T22:14:21;7.00;99.90
52024;DHT22;38038;45.922;13.604;2023-01-24T22:16:50;6.90;99.90
52024;DHT22;38038;45.922;13.604;2023-01-24T22:19:19;6.80;99.90
52024;DHT22;38038;45.922;13.604;2023-01-24T22:24:43;6.80;99.90
52024;DHT22;38038;45.922;13.604;2023-01-24T22:27:17;6.80;99.90
52024;DHT22;38038;45.922;13.604;2023-01-24T22:29:49;6.70;99.90
52024;DHT22;38038;45.922;13.604;2023-01-24T22:32:17;6.60;99.90
52024;DHT22;38038;45.922;13.604;2023-01-24T22:34:43;6.40;99.90
52024;DHT22;38038;45.922;13.604;2023-01-24T22:37:38;6.50;99.90
52024;DHT22;38038;45.922;13.604;2023-01-24T22:40:06;6.50;99.90
52024;DHT22;38038;45.922;13.604;2023-01-24T22:42:31;6.50;99.90
52024;DHT22;38038;45.922;13.604;2023-01-24T22:44:57;6.50;99.90
52024;DHT22;38038;45.922;13.604;2023-01-24T22:47:23;6.50;99.90
52024;DHT22;38038;45.922;13.604;2023-01-24T22:49:48;6.50;99.90
52024;DHT22;38038;45.922;13.604;2023-01-24T22:52:15;6.60;99.90
52024;DHT22;38038;45.922;13.604;2023-01-24T22:54:40;6.70;99.90
52024;DHT22;38038;45.922;13.604;2023-01-24T22:57:07;6.80;99.90
52024;DHT22;38038;45.922;13.604;2023-01-24T22:59:33;6.80;99.90
52024;DHT22;38038;45.922;13.604;2023-01-24T23:01:59;6.80;99.90
52024;DHT22;38038;45.922;13.604;2023-01-24T23:04:25;6.90;99.90
52024;DHT22;38038;45.922;13.604;2023-01-24T23:06:50;6.80;99.90
52024;DHT22;38038;45.922;13.604;2023-01-24T23:09:16;6.80;99.90
52024;DHT22;38038;45.922;13.604;2023-01-24T23:11:42;6.70;99.90
52024;DHT22;38038;45.922;13.604;2023-01-24T23:14:12;6.70;99.90
52024;DHT22;38038;45.922;13.604;2023-01-24T23:22:29;6.70;99.90
52024;DHT22;38038;45.922;13.604;2023-01-24T23:24:55;6.70;99.90
52024;DHT22;38038;45.922;13.604;2023-01-24T23:27:24;6.60;99.90
52024;DHT22;38038;45.922;13.604;2023-01-24T23:30:16;6.60;99.90
52024;DHT22;38038;45.922;13.604;2023-01-24T23:35:10;6.60;99.90
52024;DHT22;38038;45.922;13.604;2023-01-24T23:37:36;6.60;99.90
52024;DHT22;38038;45.922;13.604;2023-01-24T23:40:02;6.70;99.90
52024;DHT22;38038;45.922;13.604;2023-01-24T23:42:28;6.70;99.90
52024;DHT22;38038;45.922;13.604;2023-01-24T23:44:54;6.70;99.90
52024;DHT22;38038;45.922;13.604;2023-01-24T23:47:20;6.70;99.90
52024;DHT22;38038;45.922;13.604;2023-01-24T23:49:46;6.60;99.90
52024;DHT22;38038;45.922;13.604;2023-01-24T23:52:13;6.60;99.90
52024;DHT22;38038;45.922;13.604;2023-01-24T23:54:38;6.70;99.90
52024;DHT22;38038;45.922;13.604;2023-01-24T23:57:04;6.50;99.90
52024;DHT22;38038;45.922;13.604;2023-01-24T23:59:33;6.60;99.90
